sensor_id;sensor_type;location;lat;lon;timestamp;P1;durP1;ratioP1;P2;durP2;ratioP2
42260;SDS011;27926;48.062;7.474;2022-10-17T00:01:38;7.65;;;3.10;;
42260;SDS011;27926;48.062;7.474;2022-10-17T00:04:02;4.35;;;3.08;;
42260;SDS011;27926;48.062;7.474;2022-10-17T00:06:27;20.60;;;3.47;;
42260;SDS011;27926;48.062;7.474;2022-10-17T00:08:51;5.88;;;3.78;;
42260;SDS011;27926;48.062;7.474;2022-10-17T00:11:18;11.23;;;3.10;;
42260;SDS011;27926;48.062;7.474;2022-10-17T00:13:44;12.60;;;3.25;;
42260;SDS011;27926;48.062;7.474;2022-10-17T00:16:10;10.50;;;3.65;;
42260;SDS011;27926;48.062;7.474;2022-10-17T00:18:35;8.00;;;2.78;;
42260;SDS011;27926;48.062;7.474;2022-10-17T00:21:00;8.63;;;2.53;;
42260;SDS011;27926;48.062;7.474;2022-10-17T00:23:28;16.60;;;3.13;;
42260;SDS011;27926;48.062;7.474;2022-10-17T00:25:57;8.05;;;2.63;;
42260;SDS011;27926;48.062;7.474;2022-10-17T00:28:25;3.97;;;2.85;;
42260;SDS011;27926;48.062;7.474;2022-10-17T00:30:54;9.18;;;3.15;;
42260;SDS011;27926;48.062;7.474;2022-10-17T00:33:23;5.15;;;2.55;;
42260;SDS011;27926;48.062;7.474;2022-10-17T00:35:49;7.50;;;3.30;;
42260;SDS011;27926;48.062;7.474;2022-10-17T00:38:13;7.97;;;2.78;;
42260;SDS011;27926;48.062;7.474;2022-10-17T00:40:38;4.43;;;2.25;;
42260;SDS011;27926;48.062;7.474;2022-10-17T00:43:02;5.60;;;3.47;;
42260;SDS011;27926;48.062;7.474;2022-10-17T00:45:27;12.10;;;3.15;;
42260;SDS011;27926;48.062;7.474;2022-10-17T00:47:54;11.52;;;2.53;;
42260;SDS011;27926;48.062;7.474;2022-10-17T00:50:26;10.00;;;3.03;;
42260;SDS011;27926;48.062;7.474;2022-10-17T00:52:52;13.90;;;3.08;;
42260;SDS011;27926;48.062;7.474;2022-10-17T00:55:20;3.55;;;2.72;;
42260;SDS011;27926;48.062;7.474;2022-10-17T00:57:52;11.73;;;3.50;;
42260;SDS011;27926;48.062;7.474;2022-10-17T01:00:17;7.97;;;3.08;;
42260;SDS011;27926;48.062;7.474;2022-10-17T01:02:42;7.78;;;3.10;;
42260;SDS011;27926;48.062;7.474;2022-10-17T01:05:08;4.03;;;2.90;;
42260;SDS011;27926;48.062;7.474;2022-10-17T01:07:33;12.07;;;4.07;;
42260;SDS011;27926;48.062;7.474;2022-10-17T01:09:59;7.47;;;2.78;;
42260;SDS011;27926;48.062;7.474;2022-10-17T01:15:16;8.48;;;3.03;;
42260;SDS011;27926;48.062;7.474;2022-10-17T01:29:11;7.18;;;4.20;;
42260;SDS011;27926;48.062;7.474;2022-10-17T01:31:58;16.75;;;4.00;;
42260;SDS011;27926;48.062;7.474;2022-10-17T01:37:12;14.48;;;4.00;;
42260;SDS011;27926;48.062;7.474;2022-10-17T01:39:52;9.25;;;3.83;;
42260;SDS011;27926;48.062;7.474;2022-10-17T01:42:41;8.55;;;3.63;;
42260;SDS011;27926;48.062;7.474;2022-10-17T01:45:13;6.78;;;3.47;;
42260;SDS011;27926;48.062;7.474;2022-10-17T01:47:42;8.23;;;2.95;;
42260;SDS011;27926;48.062;7.474;2022-10-17T01:50:13;5.97;;;3.47;;
42260;SDS011;27926;48.062;7.474;2022-10-17T01:53:31;7.63;;;3.40;;
42260;SDS011;27926;48.062;7.474;2022-10-17T01:55:43;7.05;;;3.53;;
42260;SDS011;27926;48.062;7.474;2022-10-17T01:58:20;8.73;;;3.65;;
42260;SDS011;27926;48.062;7.474;2022-10-17T02:00:49;10.98;;;3.95;;
42260;SDS011;27926;48.062;7.474;2022-10-17T02:03:16;8.50;;;4.65;;
42260;SDS011;27926;48.062;7.474;2022-10-17T02:05:44;14.50;;;4.38;;
42260;SDS011;27926;48.062;7.474;2022-10-17T02:08:09;11.55;;;3.95;;
42260;SDS011;27926;48.062;7.474;2022-10-17T02:10:38;16.38;;;4.00;;
42260;SDS011;27926;48.062;7.474;2022-10-17T02:15:41;6.28;;;3.45;;
42260;SDS011;27926;48.062;7.474;2022-10-17T02:25:47;18.90;;;3.72;;
42260;SDS011;27926;48.062;7.474;2022-10-17T02:28:20;8.80;;;3.58;;
42260;SDS011;27926;48.062;7.474;2022-10-17T02:31:01;14.55;;;3.88;;
42260;SDS011;27926;48.062;7.474;2022-10-17T02:33:31;6.88;;;3.60;;
42260;SDS011;27926;48.062;7.474;2022-10-17T02:36:01;10.23;;;3.45;;
42260;SDS011;27926;48.062;7.474;2022-10-17T02:38:34;7.60;;;3.90;;
42260;SDS011;27926;48.062;7.474;2022-10-17T02:40:58;9.27;;;4.05;;
42260;SDS011;27926;48.062;7.474;2022-10-17T02:43:24;14.85;;;3.85;;
42260;SDS011;27926;48.062;7.474;2022-10-17T02:45:49;3.17;;;2.17;;
42260;SDS011;27926;48.062;7.474;2022-10-17T02:48:30;6.18;;;3.75;;
42260;SDS011;27926;48.062;7.474;2022-10-17T02:51:04;9.32;;;4.90;;
42260;SDS011;27926;48.062;7.474;2022-10-17T02:54:03;38.22;;;4.45;;
42260;SDS011;27926;48.062;7.474;2022-10-17T02:57:09;4.43;;;3.13;;
42260;SDS011;27926;48.062;7.474;2022-10-17T02:59:31;4.32;;;2.95;;
42260;SDS011;27926;48.062;7.474;2022-10-17T03:02:01;7.38;;;3.38;;
42260;SDS011;27926;48.062;7.474;2022-10-17T03:04:29;4.38;;;2.95;;
42260;SDS011;27926;48.062;7.474;2022-10-17T03:06:54;5.55;;;3.25;;
42260;SDS011;27926;48.062;7.474;2022-10-17T03:09:19;4.47;;;3.40;;
42260;SDS011;27926;48.062;7.474;2022-10-17T03:11:46;6.28;;;4.20;;
42260;SDS011;27926;48.062;7.474;2022-10-17T03:14:11;9.70;;;3.40;;
42260;SDS011;27926;48.062;7.474;2022-10-17T03:16:35;14.90;;;3.78;;
42260;SDS011;27926;48.062;7.474;2022-10-17T03:19:00;14.35;;;3.60;;
42260;SDS011;27926;48.062;7.474;2022-10-17T03:21:25;10.35;;;4.03;;
42260;SDS011;27926;48.062;7.474;2022-10-17T03:23:49;10.77;;;3.63;;
42260;SDS011;27926;48.062;7.474;2022-10-17T03:26:14;16.02;;;4.40;;
42260;SDS011;27926;48.062;7.474;2022-10-17T03:28:38;19.60;;;3.38;;
42260;SDS011;27926;48.062;7.474;2022-10-17T03:31:07;9.82;;;2.72;;
42260;SDS011;27926;48.062;7.474;2022-10-17T03:33:37;15.15;;;3.58;;
42260;SDS011;27926;48.062;7.474;2022-10-17T03:36:19;8.32;;;3.92;;
42260;SDS011;27926;48.062;7.474;2022-10-17T03:38:44;7.78;;;2.78;;
42260;SDS011;27926;48.062;7.474;2022-10-17T03:41:09;5.20;;;3.37;;
42260;SDS011;27926;48.062;7.474;2022-10-17T03:43:34;7.05;;;3.25;;
42260;SDS011;27926;48.062;7.474;2022-10-17T03:45:59;14.27;;;3.33;;
42260;SDS011;27926;48.062;7.474;2022-10-17T03:48:25;12.35;;;3.17;;
42260;SDS011;27926;48.062;7.474;2022-10-17T03:50:51;9.38;;;2.97;;
42260;SDS011;27926;48.062;7.474;2022-10-17T03:53:16;5.13;;;3.25;;
42260;SDS011;27926;48.062;7.474;2022-10-17T03:55:40;11.25;;;3.83;;
42260;SDS011;27926;48.062;7.474;2022-10-17T03:58:05;15.30;;;3.03;;
42260;SDS011;27926;48.062;7.474;2022-10-17T04:00:30;9.40;;;3.17;;
42260;SDS011;27926;48.062;7.474;2022-10-17T04:02:54;13.98;;;3.13;;
42260;SDS011;27926;48.062;7.474;2022-10-17T04:05:20;8.40;;;2.85;;
42260;SDS011;27926;48.062;7.474;2022-10-17T04:07:44;7.18;;;3.13;;
42260;SDS011;27926;48.062;7.474;2022-10-17T04:10:09;4.75;;;2.85;;
42260;SDS011;27926;48.062;7.474;2022-10-17T04:12:34;5.35;;;3.00;;
42260;SDS011;27926;48.062;7.474;2022-10-17T04:14:58;9.43;;;2.95;;
42260;SDS011;27926;48.062;7.474;2022-10-17T04:17:23;8.07;;;3.50;;
42260;SDS011;27926;48.062;7.474;2022-10-17T04:19:48;4.90;;;2.60;;
42260;SDS011;27926;48.062;7.474;2022-10-17T04:22:13;7.33;;;2.90;;
42260;SDS011;27926;48.062;7.474;2022-10-17T04:24:37;11.93;;;3.25;;
42260;SDS011;27926;48.062;7.474;2022-10-17T04:27:02;9.38;;;3.35;;
42260;SDS011;27926;48.062;7.474;2022-10-17T04:29:26;6.85;;;3.53;;
42260;SDS011;27926;48.062;7.474;2022-10-17T04:31:51;6.55;;;2.60;;
42260;SDS011;27926;48.062;7.474;2022-10-17T04:34:16;9.60;;;3.38;;
42260;SDS011;27926;48.062;7.474;2022-10-17T04:36:41;12.40;;;3.83;;
42260;SDS011;27926;48.062;7.474;2022-10-17T04:39:05;12.05;;;3.60;;
42260;SDS011;27926;48.062;7.474;2022-10-17T04:41:30;10.68;;;3.38;;
42260;SDS011;27926;48.062;7.474;2022-10-17T04:43:55;5.88;;;3.03;;
42260;SDS011;27926;48.062;7.474;2022-10-17T04:46:19;7.38;;;3.20;;
42260;SDS011;27926;48.062;7.474;2022-10-17T04:48:44;17.02;;;3.38;;
42260;SDS011;27926;48.062;7.474;2022-10-17T04:51:10;4.65;;;3.22;;
42260;SDS011;27926;48.062;7.474;2022-10-17T04:53:40;6.82;;;2.88;;
42260;SDS011;27926;48.062;7.474;2022-10-17T04:56:13;4.60;;;2.92;;
42260;SDS011;27926;48.062;7.474;2022-10-17T04:58:40;13.07;;;3.30;;
42260;SDS011;27926;48.062;7.474;2022-10-17T05:01:06;4.97;;;2.92;;
42260;SDS011;27926;48.062;7.474;2022-10-17T05:03:32;9.35;;;3.25;;
42260;SDS011;27926;48.062;7.474;2022-10-17T05:05:57;9.20;;;3.27;;
42260;SDS011;27926;48.062;7.474;2022-10-17T05:08:22;7.28;;;2.30;;
42260;SDS011;27926;48.062;7.474;2022-10-17T05:10:47;6.47;;;2.60;;
42260;SDS011;27926;48.062;7.474;2022-10-17T05:13:11;9.93;;;2.85;;
42260;SDS011;27926;48.062;7.474;2022-10-17T05:15:37;7.88;;;2.63;;
42260;SDS011;27926;48.062;7.474;2022-10-17T05:18:02;13.73;;;2.65;;
42260;SDS011;27926;48.062;7.474;2022-10-17T05:20:27;7.55;;;3.05;;
42260;SDS011;27926;48.062;7.474;2022-10-17T05:22:52;11.40;;;4.90;;
42260;SDS011;27926;48.062;7.474;2022-10-17T05:25:17;9.73;;;3.15;;
42260;SDS011;27926;48.062;7.474;2022-10-17T05:27:42;4.93;;;2.77;;
42260;SDS011;27926;48.062;7.474;2022-10-17T05:30:07;4.55;;;2.42;;
42260;SDS011;27926;48.062;7.474;2022-10-17T05:32:32;15.68;;;3.17;;
42260;SDS011;27926;48.062;7.474;2022-10-17T05:34:57;12.63;;;3.20;;
42260;SDS011;27926;48.062;7.474;2022-10-17T05:37:21;18.00;;;3.17;;
42260;SDS011;27926;48.062;7.474;2022-10-17T05:39:46;7.80;;;3.58;;
42260;SDS011;27926;48.062;7.474;2022-10-17T05:42:11;4.82;;;2.95;;
42260;SDS011;27926;48.062;7.474;2022-10-17T05:44:35;8.27;;;3.97;;
42260;SDS011;27926;48.062;7.474;2022-10-17T05:47:02;11.05;;;5.20;;
42260;SDS011;27926;48.062;7.474;2022-10-17T05:49:26;6.43;;;4.07;;
42260;SDS011;27926;48.062;7.474;2022-10-17T05:51:51;14.00;;;4.03;;
42260;SDS011;27926;48.062;7.474;2022-10-17T05:54:15;10.43;;;4.90;;
42260;SDS011;27926;48.062;7.474;2022-10-17T05:56:40;7.65;;;3.25;;
42260;SDS011;27926;48.062;7.474;2022-10-17T05:59:05;8.32;;;3.28;;
42260;SDS011;27926;48.062;7.474;2022-10-17T06:01:29;14.82;;;2.97;;
42260;SDS011;27926;48.062;7.474;2022-10-17T06:03:54;8.35;;;3.22;;
42260;SDS011;27926;48.062;7.474;2022-10-17T06:06:18;3.80;;;2.38;;
42260;SDS011;27926;48.062;7.474;2022-10-17T06:08:43;5.43;;;2.80;;
42260;SDS011;27926;48.062;7.474;2022-10-17T06:11:09;9.13;;;3.10;;
42260;SDS011;27926;48.062;7.474;2022-10-17T06:15:59;9.32;;;2.85;;
42260;SDS011;27926;48.062;7.474;2022-10-17T06:18:24;12.20;;;3.78;;
42260;SDS011;27926;48.062;7.474;2022-10-17T06:20:49;9.43;;;3.78;;
42260;SDS011;27926;48.062;7.474;2022-10-17T06:23:14;16.30;;;6.53;;
42260;SDS011;27926;48.062;7.474;2022-10-17T06:25:39;12.85;;;4.00;;
42260;SDS011;27926;48.062;7.474;2022-10-17T06:28:03;4.40;;;3.20;;
42260;SDS011;27926;48.062;7.474;2022-10-17T06:30:28;10.13;;;4.53;;
42260;SDS011;27926;48.062;7.474;2022-10-17T06:32:53;15.80;;;3.35;;
42260;SDS011;27926;48.062;7.474;2022-10-17T06:35:18;11.73;;;4.75;;
42260;SDS011;27926;48.062;7.474;2022-10-17T06:37:43;6.10;;;2.95;;
42260;SDS011;27926;48.062;7.474;2022-10-17T06:40:08;4.82;;;3.42;;
42260;SDS011;27926;48.062;7.474;2022-10-17T06:42:35;15.10;;;4.15;;
42260;SDS011;27926;48.062;7.474;2022-10-17T06:44:59;10.50;;;3.45;;
42260;SDS011;27926;48.062;7.474;2022-10-17T06:47:24;8.65;;;2.80;;
42260;SDS011;27926;48.062;7.474;2022-10-17T06:49:49;8.55;;;4.25;;
42260;SDS011;27926;48.062;7.474;2022-10-17T06:52:13;9.98;;;4.35;;
42260;SDS011;27926;48.062;7.474;2022-10-17T06:54:40;5.15;;;3.30;;
42260;SDS011;27926;48.062;7.474;2022-10-17T06:57:04;9.15;;;2.83;;
42260;SDS011;27926;48.062;7.474;2022-10-17T06:59:29;11.38;;;3.17;;
42260;SDS011;27926;48.062;7.474;2022-10-17T07:01:53;17.52;;;3.53;;
42260;SDS011;27926;48.062;7.474;2022-10-17T07:04:18;5.82;;;3.00;;
42260;SDS011;27926;48.062;7.474;2022-10-17T07:06:42;9.32;;;3.10;;
42260;SDS011;27926;48.062;7.474;2022-10-17T07:09:07;5.78;;;2.58;;
42260;SDS011;27926;48.062;7.474;2022-10-17T07:11:32;8.07;;;3.40;;
42260;SDS011;27926;48.062;7.474;2022-10-17T07:13:58;7.25;;;3.30;;
42260;SDS011;27926;48.062;7.474;2022-10-17T07:16:22;9.93;;;3.00;;
42260;SDS011;27926;48.062;7.474;2022-10-17T07:18:50;6.28;;;3.30;;
42260;SDS011;27926;48.062;7.474;2022-10-17T07:21:15;15.13;;;5.10;;
42260;SDS011;27926;48.062;7.474;2022-10-17T07:23:40;14.10;;;4.67;;
42260;SDS011;27926;48.062;7.474;2022-10-17T07:26:07;7.30;;;3.58;;
42260;SDS011;27926;48.062;7.474;2022-10-17T07:28:34;13.80;;;3.78;;
42260;SDS011;27926;48.062;7.474;2022-10-17T07:31:04;4.90;;;3.15;;
42260;SDS011;27926;48.062;7.474;2022-10-17T07:33:30;7.78;;;3.15;;
42260;SDS011;27926;48.062;7.474;2022-10-17T07:35:57;6.72;;;2.78;;
42260;SDS011;27926;48.062;7.474;2022-10-17T07:38:23;13.88;;;2.28;;
42260;SDS011;27926;48.062;7.474;2022-10-17T07:40:52;7.65;;;2.45;;
42260;SDS011;27926;48.062;7.474;2022-10-17T07:43:21;4.03;;;2.13;;
42260;SDS011;27926;48.062;7.474;2022-10-17T07:45:46;9.10;;;2.10;;
42260;SDS011;27926;48.062;7.474;2022-10-17T07:48:11;16.35;;;2.35;;
42260;SDS011;27926;48.062;7.474;2022-10-17T07:50:35;12.50;;;1.77;;
42260;SDS011;27926;48.062;7.474;2022-10-17T07:53:00;9.02;;;2.15;;
42260;SDS011;27926;48.062;7.474;2022-10-17T07:55:25;20.10;;;2.35;;
42260;SDS011;27926;48.062;7.474;2022-10-17T07:57:49;12.90;;;1.90;;
42260;SDS011;27926;48.062;7.474;2022-10-17T08:00:14;6.10;;;2.08;;
42260;SDS011;27926;48.062;7.474;2022-10-17T08:02:38;16.83;;;2.55;;
42260;SDS011;27926;48.062;7.474;2022-10-17T08:05:03;5.25;;;1.98;;
42260;SDS011;27926;48.062;7.474;2022-10-17T08:07:28;11.15;;;2.05;;
42260;SDS011;27926;48.062;7.474;2022-10-17T08:09:53;12.75;;;2.22;;
42260;SDS011;27926;48.062;7.474;2022-10-17T08:12:18;6.95;;;1.95;;
42260;SDS011;27926;48.062;7.474;2022-10-17T08:14:42;2.72;;;1.77;;
42260;SDS011;27926;48.062;7.474;2022-10-17T08:17:07;6.13;;;2.47;;
42260;SDS011;27926;48.062;7.474;2022-10-17T08:19:33;3.33;;;2.00;;
42260;SDS011;27926;48.062;7.474;2022-10-17T08:21:57;2.00;;;1.70;;
42260;SDS011;27926;48.062;7.474;2022-10-17T08:24:22;3.15;;;1.83;;
42260;SDS011;27926;48.062;7.474;2022-10-17T08:26:46;13.68;;;2.38;;
42260;SDS011;27926;48.062;7.474;2022-10-17T08:29:12;5.55;;;1.88;;
42260;SDS011;27926;48.062;7.474;2022-10-17T08:31:38;7.40;;;1.80;;
42260;SDS011;27926;48.062;7.474;2022-10-17T08:34:02;7.60;;;2.97;;
42260;SDS011;27926;48.062;7.474;2022-10-17T08:36:27;2.38;;;1.70;;
42260;SDS011;27926;48.062;7.474;2022-10-17T08:38:52;8.10;;;2.13;;
42260;SDS011;27926;48.062;7.474;2022-10-17T08:46:32;7.30;;;1.80;;
42260;SDS011;27926;48.062;7.474;2022-10-17T08:49:00;9.07;;;1.55;;
42260;SDS011;27926;48.062;7.474;2022-10-17T08:51:28;9.00;;;1.75;;
42260;SDS011;27926;48.062;7.474;2022-10-17T08:53:57;13.90;;;2.30;;
42260;SDS011;27926;48.062;7.474;2022-10-17T08:56:26;4.60;;;2.03;;
42260;SDS011;27926;48.062;7.474;2022-10-17T08:58:56;11.13;;;2.10;;
42260;SDS011;27926;48.062;7.474;2022-10-17T09:01:26;5.68;;;1.63;;
42260;SDS011;27926;48.062;7.474;2022-10-17T09:12:18;5.63;;;1.65;;
42260;SDS011;27926;48.062;7.474;2022-10-17T09:17:49;8.38;;;1.92;;
42260;SDS011;27926;48.062;7.474;2022-10-17T09:20:19;10.77;;;1.80;;
42260;SDS011;27926;48.062;7.474;2022-10-17T09:25:45;2.67;;;1.70;;
42260;SDS011;27926;48.062;7.474;2022-10-17T09:28:14;3.08;;;1.55;;
42260;SDS011;27926;48.062;7.474;2022-10-17T09:31:04;3.40;;;1.52;;
42260;SDS011;27926;48.062;7.474;2022-10-17T09:33:41;7.88;;;1.52;;
42260;SDS011;27926;48.062;7.474;2022-10-17T09:36:09;4.28;;;1.70;;
42260;SDS011;27926;48.062;7.474;2022-10-17T09:38:58;3.95;;;1.70;;
42260;SDS011;27926;48.062;7.474;2022-10-17T09:49:30;6.32;;;2.08;;
42260;SDS011;27926;48.062;7.474;2022-10-17T09:52:00;7.03;;;2.08;;
42260;SDS011;27926;48.062;7.474;2022-10-17T09:54:28;5.47;;;2.50;;
42260;SDS011;27926;48.062;7.474;2022-10-17T09:57:05;14.57;;;1.60;;
42260;SDS011;27926;48.062;7.474;2022-10-17T09:59:33;9.18;;;2.10;;
42260;SDS011;27926;48.062;7.474;2022-10-17T10:02:13;8.50;;;2.30;;
42260;SDS011;27926;48.062;7.474;2022-10-17T10:07:19;10.93;;;2.22;;
42260;SDS011;27926;48.062;7.474;2022-10-17T10:09:44;9.80;;;2.03;;
42260;SDS011;27926;48.062;7.474;2022-10-17T10:12:18;9.30;;;2.03;;
42260;SDS011;27926;48.062;7.474;2022-10-17T10:14:48;5.13;;;1.63;;
42260;SDS011;27926;48.062;7.474;2022-10-17T10:19:58;6.25;;;2.05;;
42260;SDS011;27926;48.062;7.474;2022-10-17T10:22:22;10.17;;;1.93;;
42260;SDS011;27926;48.062;7.474;2022-10-17T10:24:56;6.03;;;1.47;;
42260;SDS011;27926;48.062;7.474;2022-10-17T10:27:40;3.03;;;1.65;;
42260;SDS011;27926;48.062;7.474;2022-10-17T10:30:15;6.47;;;2.00;;
42260;SDS011;27926;48.062;7.474;2022-10-17T10:32:46;5.53;;;1.75;;
42260;SDS011;27926;48.062;7.474;2022-10-17T10:35:23;3.47;;;1.75;;
42260;SDS011;27926;48.062;7.474;2022-10-17T10:37:58;16.17;;;1.90;;
42260;SDS011;27926;48.062;7.474;2022-10-17T10:40:36;2.05;;;1.45;;
42260;SDS011;27926;48.062;7.474;2022-10-17T10:43:16;6.35;;;1.92;;
42260;SDS011;27926;48.062;7.474;2022-10-17T10:45:52;3.35;;;1.27;;
42260;SDS011;27926;48.062;7.474;2022-10-17T10:48:28;7.77;;;1.60;;
42260;SDS011;27926;48.062;7.474;2022-10-17T10:50:59;22.73;;;1.70;;
42260;SDS011;27926;48.062;7.474;2022-10-17T10:53:40;6.03;;;2.10;;
42260;SDS011;27926;48.062;7.474;2022-10-17T10:56:28;9.98;;;1.60;;
42260;SDS011;27926;48.062;7.474;2022-10-17T11:01:47;3.63;;;1.67;;
42260;SDS011;27926;48.062;7.474;2022-10-17T11:04:46;7.72;;;1.33;;
42260;SDS011;27926;48.062;7.474;2022-10-17T11:07:18;3.38;;;1.30;;
42260;SDS011;27926;48.062;7.474;2022-10-17T11:12:48;1.20;;;1.00;;
42260;SDS011;27926;48.062;7.474;2022-10-17T11:15:22;4.70;;;1.70;;
42260;SDS011;27926;48.062;7.474;2022-10-17T11:18:04;4.45;;;1.30;;
42260;SDS011;27926;48.062;7.474;2022-10-17T11:20:37;1.17;;;0.80;;
42260;SDS011;27926;48.062;7.474;2022-10-17T11:55:03;4.43;;;1.23;;
42260;SDS011;27926;48.062;7.474;2022-10-17T11:57:43;2.40;;;1.60;;
42260;SDS011;27926;48.062;7.474;2022-10-17T12:00:30;1.42;;;0.88;;
42260;SDS011;27926;48.062;7.474;2022-10-17T12:06:24;3.63;;;0.80;;
42260;SDS011;27926;48.062;7.474;2022-10-17T12:12:23;3.70;;;1.55;;
42260;SDS011;27926;48.062;7.474;2022-10-17T12:14:48;5.00;;;1.13;;
42260;SDS011;27926;48.062;7.474;2022-10-17T12:19:46;3.42;;;1.15;;
42260;SDS011;27926;48.062;7.474;2022-10-17T12:24:42;2.47;;;1.10;;
42260;SDS011;27926;48.062;7.474;2022-10-17T12:30:00;3.10;;;1.08;;
42260;SDS011;27926;48.062;7.474;2022-10-17T12:32:51;2.55;;;1.08;;
42260;SDS011;27926;48.062;7.474;2022-10-17T12:35:20;1.98;;;0.95;;
42260;SDS011;27926;48.062;7.474;2022-10-17T12:43:45;1.50;;;1.02;;
42260;SDS011;27926;48.062;7.474;2022-10-17T12:45:51;5.47;;;0.98;;
42260;SDS011;27926;48.062;7.474;2022-10-17T12:51:11;1.40;;;0.93;;
42260;SDS011;27926;48.062;7.474;2022-10-17T12:56:15;2.58;;;1.25;;
42260;SDS011;27926;48.062;7.474;2022-10-17T12:58:43;9.43;;;1.15;;
42260;SDS011;27926;48.062;7.474;2022-10-17T13:01:18;6.57;;;1.10;;
42260;SDS011;27926;48.062;7.474;2022-10-17T13:03:50;7.35;;;1.30;;
42260;SDS011;27926;48.062;7.474;2022-10-17T13:08:50;4.88;;;1.58;;
42260;SDS011;27926;48.062;7.474;2022-10-17T13:11:34;7.03;;;2.03;;
42260;SDS011;27926;48.062;7.474;2022-10-17T13:14:01;6.35;;;1.75;;
42260;SDS011;27926;48.062;7.474;2022-10-17T13:16:39;3.75;;;0.80;;
42260;SDS011;27926;48.062;7.474;2022-10-17T13:19:15;1.98;;;1.38;;
42260;SDS011;27926;48.062;7.474;2022-10-17T13:24:20;4.00;;;1.40;;
42260;SDS011;27926;48.062;7.474;2022-10-17T13:26:46;9.68;;;1.65;;
42260;SDS011;27926;48.062;7.474;2022-10-17T13:29:12;3.00;;;1.00;;
42260;SDS011;27926;48.062;7.474;2022-10-17T13:31:38;2.42;;;1.20;;
42260;SDS011;27926;48.062;7.474;2022-10-17T13:34:12;3.10;;;1.25;;
42260;SDS011;27926;48.062;7.474;2022-10-17T13:36:39;3.28;;;0.90;;
42260;SDS011;27926;48.062;7.474;2022-10-17T13:39:06;3.60;;;1.10;;
42260;SDS011;27926;48.062;7.474;2022-10-17T13:41:33;2.10;;;1.00;;
42260;SDS011;27926;48.062;7.474;2022-10-17T13:43:58;4.17;;;0.90;;
42260;SDS011;27926;48.062;7.474;2022-10-17T13:46:33;2.55;;;1.10;;
42260;SDS011;27926;48.062;7.474;2022-10-17T13:48:59;10.10;;;1.30;;
42260;SDS011;27926;48.062;7.474;2022-10-17T13:51:42;5.90;;;0.95;;
42260;SDS011;27926;48.062;7.474;2022-10-17T13:54:16;10.52;;;1.15;;
42260;SDS011;27926;48.062;7.474;2022-10-17T13:56:42;2.80;;;0.90;;
42260;SDS011;27926;48.062;7.474;2022-10-17T13:59:21;10.40;;;1.17;;
42260;SDS011;27926;48.062;7.474;2022-10-17T14:01:51;3.85;;;1.58;;
42260;SDS011;27926;48.062;7.474;2022-10-17T14:04:17;5.43;;;0.93;;
42260;SDS011;27926;48.062;7.474;2022-10-17T14:06:42;3.43;;;1.37;;
42260;SDS011;27926;48.062;7.474;2022-10-17T14:09:24;2.15;;;1.15;;
42260;SDS011;27926;48.062;7.474;2022-10-17T14:11:56;4.53;;;1.35;;
42260;SDS011;27926;48.062;7.474;2022-10-17T14:14:26;2.90;;;0.80;;
42260;SDS011;27926;48.062;7.474;2022-10-17T14:16:51;4.35;;;1.30;;
42260;SDS011;27926;48.062;7.474;2022-10-17T14:19:22;3.85;;;0.80;;
42260;SDS011;27926;48.062;7.474;2022-10-17T14:21:54;4.82;;;1.63;;
42260;SDS011;27926;48.062;7.474;2022-10-17T14:24:36;7.22;;;1.58;;
42260;SDS011;27926;48.062;7.474;2022-10-17T14:29:50;4.57;;;1.13;;
42260;SDS011;27926;48.062;7.474;2022-10-17T14:32:17;10.85;;;1.30;;
42260;SDS011;27926;48.062;7.474;2022-10-17T14:34:43;6.68;;;0.95;;
42260;SDS011;27926;48.062;7.474;2022-10-17T14:37:10;3.95;;;1.02;;
42260;SDS011;27926;48.062;7.474;2022-10-17T14:39:57;2.15;;;0.98;;
42260;SDS011;27926;48.062;7.474;2022-10-17T14:42:23;3.05;;;1.25;;
42260;SDS011;27926;48.062;7.474;2022-10-17T14:44:49;3.35;;;1.00;;
42260;SDS011;27926;48.062;7.474;2022-10-17T14:47:16;4.18;;;1.17;;
42260;SDS011;27926;48.062;7.474;2022-10-17T14:49:48;4.82;;;1.73;;
42260;SDS011;27926;48.062;7.474;2022-10-17T14:54:39;3.47;;;1.53;;
42260;SDS011;27926;48.062;7.474;2022-10-17T14:57:12;6.22;;;1.20;;
42260;SDS011;27926;48.062;7.474;2022-10-17T14:59:56;7.13;;;1.00;;
42260;SDS011;27926;48.062;7.474;2022-10-17T15:02:25;3.05;;;1.08;;
42260;SDS011;27926;48.062;7.474;2022-10-17T15:04:51;19.38;;;1.42;;
42260;SDS011;27926;48.062;7.474;2022-10-17T15:07:16;6.35;;;1.02;;
42260;SDS011;27926;48.062;7.474;2022-10-17T15:09:42;4.18;;;1.10;;
42260;SDS011;27926;48.062;7.474;2022-10-17T15:12:15;4.70;;;0.80;;
42260;SDS011;27926;48.062;7.474;2022-10-17T15:14:42;4.40;;;1.08;;
42260;SDS011;27926;48.062;7.474;2022-10-17T15:17:15;4.47;;;1.20;;
42260;SDS011;27926;48.062;7.474;2022-10-17T15:19:43;8.57;;;1.05;;
42260;SDS011;27926;48.062;7.474;2022-10-17T15:22:08;9.47;;;1.20;;
42260;SDS011;27926;48.062;7.474;2022-10-17T15:26:58;4.65;;;1.23;;
42260;SDS011;27926;48.062;7.474;2022-10-17T15:29:23;6.17;;;1.13;;
42260;SDS011;27926;48.062;7.474;2022-10-17T15:31:48;7.17;;;1.57;;
42260;SDS011;27926;48.062;7.474;2022-10-17T15:34:13;3.40;;;1.23;;
42260;SDS011;27926;48.062;7.474;2022-10-17T15:36:38;7.57;;;1.30;;
42260;SDS011;27926;48.062;7.474;2022-10-17T15:39:04;5.20;;;1.83;;
42260;SDS011;27926;48.062;7.474;2022-10-17T15:41:30;4.10;;;1.07;;
42260;SDS011;27926;48.062;7.474;2022-10-17T15:43:55;9.25;;;1.92;;
42260;SDS011;27926;48.062;7.474;2022-10-17T15:46:22;19.33;;;2.17;;
42260;SDS011;27926;48.062;7.474;2022-10-17T15:48:49;19.42;;;2.10;;
42260;SDS011;27926;48.062;7.474;2022-10-17T15:51:14;7.50;;;1.10;;
42260;SDS011;27926;48.062;7.474;2022-10-17T15:53:39;5.88;;;1.33;;
42260;SDS011;27926;48.062;7.474;2022-10-17T15:56:04;2.97;;;1.50;;
42260;SDS011;27926;48.062;7.474;2022-10-17T15:58:32;4.15;;;1.60;;
42260;SDS011;27926;48.062;7.474;2022-10-17T16:00:59;4.32;;;1.35;;
42260;SDS011;27926;48.062;7.474;2022-10-17T16:03:24;13.03;;;1.30;;
42260;SDS011;27926;48.062;7.474;2022-10-17T16:05:48;7.93;;;1.37;;
42260;SDS011;27926;48.062;7.474;2022-10-17T16:08:13;4.17;;;1.10;;
42260;SDS011;27926;48.062;7.474;2022-10-17T16:10:38;2.90;;;1.43;;
42260;SDS011;27926;48.062;7.474;2022-10-17T16:13:04;3.55;;;1.35;;
42260;SDS011;27926;48.062;7.474;2022-10-17T16:15:28;4.67;;;1.60;;
42260;SDS011;27926;48.062;7.474;2022-10-17T16:17:54;4.17;;;1.20;;
42260;SDS011;27926;48.062;7.474;2022-10-17T16:20:19;5.97;;;1.48;;
42260;SDS011;27926;48.062;7.474;2022-10-17T16:25:20;7.35;;;1.42;;
42260;SDS011;27926;48.062;7.474;2022-10-17T16:27:47;3.35;;;1.02;;
42260;SDS011;27926;48.062;7.474;2022-10-17T16:30:14;1.42;;;1.23;;
42260;SDS011;27926;48.062;7.474;2022-10-17T16:32:39;2.20;;;1.15;;
42260;SDS011;27926;48.062;7.474;2022-10-17T16:35:04;11.07;;;1.67;;
42260;SDS011;27926;48.062;7.474;2022-10-17T16:39:54;12.85;;;1.13;;
42260;SDS011;27926;48.062;7.474;2022-10-17T16:42:19;3.53;;;1.67;;
42260;SDS011;27926;48.062;7.474;2022-10-17T16:44:44;6.60;;;1.83;;
42260;SDS011;27926;48.062;7.474;2022-10-17T16:47:08;13.13;;;1.30;;
42260;SDS011;27926;48.062;7.474;2022-10-17T16:49:34;3.53;;;1.63;;
42260;SDS011;27926;48.062;7.474;2022-10-17T16:51:58;8.33;;;1.40;;
42260;SDS011;27926;48.062;7.474;2022-10-17T16:54:23;7.97;;;1.08;;
42260;SDS011;27926;48.062;7.474;2022-10-17T16:56:47;9.18;;;1.63;;
42260;SDS011;27926;48.062;7.474;2022-10-17T16:59:13;11.18;;;1.85;;
42260;SDS011;27926;48.062;7.474;2022-10-17T17:01:37;8.98;;;1.67;;
42260;SDS011;27926;48.062;7.474;2022-10-17T17:04:02;5.88;;;1.27;;
42260;SDS011;27926;48.062;7.474;2022-10-17T17:06:28;8.85;;;1.27;;
42260;SDS011;27926;48.062;7.474;2022-10-17T17:08:55;2.70;;;1.48;;
42260;SDS011;27926;48.062;7.474;2022-10-17T17:11:21;7.37;;;1.60;;
42260;SDS011;27926;48.062;7.474;2022-10-17T17:13:47;3.88;;;1.48;;
42260;SDS011;27926;48.062;7.474;2022-10-17T17:16:14;3.38;;;1.30;;